createdAt,value
2018-11-28T00:00:31.518Z,98803.23
2018-11-28T00:03:04.112Z,98809.98
2018-11-28T00:05:32.624Z,98814.28
2018-11-28T00:08:01.312Z,98812.13
2018-11-28T00:10:29.850Z,98814.83
2018-11-28T00:12:58.519Z,98819.94
2018-11-28T00:15:27.064Z,98812.91
2018-11-28T00:17:55.742Z,98819.13
2018-11-28T00:20:24.481Z,98822.34
2018-11-28T00:22:53.022Z,98816.44
2018-11-28T00:25:21.543Z,98815.89
2018-11-28T00:27:50.108Z,98823.16
2018-11-28T00:30:22.492Z,98823.14
2018-11-28T00:32:51.241Z,98816.42
2018-11-28T00:35:21.121Z,98821.80
2018-11-28T00:37:49.806Z,98817.20
2018-11-28T00:40:19.858Z,98817.48
2018-11-28T00:42:48.758Z,98819.89
2018-11-28T00:45:20.587Z,98820.13
2018-11-28T00:47:49.159Z,98825.55
2018-11-28T00:50:24.839Z,98828.78
2018-11-28T00:52:53.431Z,98832.78
2018-11-28T00:55:22.010Z,98833.59
2018-11-28T00:57:50.615Z,98841.39
2018-11-28T01:00:20.858Z,98847.86
2018-11-28T01:02:49.990Z,98846.51
2018-11-28T01:05:18.819Z,98850.81
2018-11-28T01:07:49.379Z,98854.58
2018-11-28T01:10:19.259Z,98863.73
2018-11-28T01:12:48.514Z,98865.08
2018-11-28T01:15:18.284Z,98872.62
2018-11-28T01:17:46.997Z,98865.89
2018-11-28T01:20:17.612Z,98874.44
2018-11-28T01:22:46.206Z,98875.58
2018-11-28T01:25:15.956Z,98880.70
2018-11-28T01:27:44.636Z,98880.96
2018-11-28T01:30:19.198Z,98876.39
2018-11-28T01:32:47.943Z,98876.39
2018-11-28T01:35:18.772Z,98876.68
2018-11-28T01:37:47.341Z,98874.50
2018-11-28T01:40:17.914Z,98879.36
2018-11-28T01:42:46.823Z,98876.39
2018-11-28T01:45:18.347Z,98878.27
2018-11-28T01:47:47.066Z,98883.41
2018-11-28T01:50:16.718Z,98883.67
2018-11-28T01:52:45.352Z,98869.62
2018-11-28T01:55:16.091Z,98869.66
2018-11-28T01:57:44.688Z,98875.84
2018-11-28T02:00:17.201Z,98866.94
2018-11-28T02:02:46.275Z,98868.05
2018-11-28T02:05:14.994Z,98872.62
2018-11-28T02:07:44.023Z,98865.09
2018-11-28T02:10:13.874Z,98869.12
2018-11-28T02:12:42.590Z,98870.47
2018-11-28T02:15:16.035Z,98876.95
2018-11-28T02:17:44.723Z,98875.58
2018-11-28T02:20:14.370Z,98879.35
2018-11-28T02:22:42.890Z,98874.00
2018-11-28T02:25:13.647Z,98881.25
2018-11-28T02:27:42.311Z,98878.02
2018-11-28T02:30:16.733Z,98883.13
2018-11-28T02:32:46.070Z,98879.90
2018-11-28T02:35:15.398Z,98890.13
2018-11-28T02:37:44.083Z,98883.64
2018-11-28T02:40:13.626Z,98895.78
2018-11-28T02:42:42.186Z,98892.78
2018-11-28T02:45:16.587Z,98889.32
2018-11-28T02:47:45.235Z,98893.34
2018-11-28T02:50:13.885Z,98896.80
2018-11-28T02:52:42.997Z,98892.80
2018-11-28T02:55:13.612Z,98890.94
2018-11-28T02:57:43.319Z,98891.75
2018-11-28T03:00:18.036Z,98896.28
2018-11-28T03:02:46.667Z,98894.64
2018-11-28T03:05:15.383Z,98891.70
2018-11-28T03:07:43.977Z,98900.31
2018-11-28T03:10:14.731Z,98900.06
2018-11-28T03:12:43.442Z,98894.13
2018-11-28T03:15:14.529Z,98897.07
2018-11-28T03:17:43.198Z,98892.75
2018-11-28T03:20:12.237Z,98888.72
2018-11-28T03:22:40.767Z,98891.13
2018-11-28T03:25:11.420Z,98889.52
2018-11-28T03:27:40.108Z,98892.77
2018-11-28T03:30:14.916Z,98898.39
2018-11-28T03:32:43.495Z,98888.97
2018-11-28T03:35:13.380Z,98898.65
2018-11-28T03:37:41.995Z,98904.85
2018-11-28T03:40:10.643Z,98906.95
2018-11-28T03:42:39.818Z,98901.88
2018-11-28T03:45:11.741Z,98904.27
2018-11-28T03:47:40.498Z,98895.13
2018-11-28T03:50:10.427Z,98897.59
2018-11-28T03:52:39.827Z,98891.31
2018-11-28T03:55:10.692Z,98894.33
2018-11-28T03:57:39.235Z,98895.90
2018-11-28T04:00:10.836Z,98890.80
2018-11-28T04:02:39.519Z,98892.14
2018-11-28T04:05:08.493Z,98895.87
2018-11-28T04:07:37.025Z,98890.80
2018-11-28T04:10:08.678Z,98898.11
2018-11-28T04:12:37.209Z,98890.80
2018-11-28T04:15:10.694Z,98895.56
2018-11-28T04:17:39.260Z,98887.27
2018-11-28T04:20:10.739Z,98897.02
2018-11-28T04:22:39.314Z,98895.39
2018-11-28T04:25:09.196Z,98896.73
2018-11-28T04:27:37.755Z,98896.99
2018-11-28T04:30:11.927Z,98899.66
2018-11-28T04:32:40.721Z,98899.05
2018-11-28T04:35:12.704Z,98909.80
2018-11-28T04:37:41.584Z,98905.28
2018-11-28T04:40:15.160Z,98908.48
2018-11-28T04:42:44.173Z,98906.03
2018-11-28T04:45:17.936Z,98898.56
2018-11-28T04:47:46.644Z,98900.48
2018-11-28T04:50:15.254Z,98902.10
2018-11-28T04:52:43.964Z,98895.94
2018-11-28T04:55:15.485Z,98886.00
2018-11-28T04:57:44.626Z,98890.59
2018-11-28T05:00:19.210Z,98897.81
2018-11-28T05:02:48.045Z,98901.08
2018-11-28T05:05:16.579Z,98915.58
2018-11-28T05:07:46.107Z,98915.58
2018-11-28T05:10:15.851Z,98920.42
2018-11-28T05:12:44.366Z,98914.52
2018-11-28T05:15:14.150Z,98920.13
2018-11-28T05:17:42.998Z,98932.22
2018-11-28T05:20:13.763Z,98928.47
2018-11-28T05:22:42.301Z,98925.83
2018-11-28T05:25:13.558Z,98927.70
2018-11-28T05:27:42.120Z,98928.23
2018-11-28T05:30:17.749Z,98932.01
2018-11-28T05:32:46.880Z,98928.84
2018-11-28T05:35:21.313Z,98927.97
2018-11-28T05:37:50.491Z,98921.77
2018-11-28T05:40:21.324Z,98931.25
2018-11-28T05:42:52.793Z,98933.61
2018-11-28T05:45:21.570Z,98928.53
2018-11-28T05:47:52.046Z,98928.25
2018-11-28T05:50:22.777Z,98929.89
2018-11-28T05:52:53.438Z,98934.19
2018-11-28T05:55:23.625Z,98930.70
2018-11-28T05:57:52.268Z,98934.48
2018-11-28T06:00:30.022Z,98940.67
2018-11-28T06:02:59.736Z,98942.27
2018-11-28T06:05:28.559Z,98941.51
2018-11-28T06:07:57.117Z,98942.02
2018-11-28T06:10:26.351Z,98938.83
2018-11-28T06:12:55.326Z,98944.73
2018-11-28T06:15:23.976Z,98933.44
2018-11-28T06:17:52.667Z,98945.00
2018-11-28T06:20:21.959Z,98939.10
2018-11-28T06:22:50.663Z,98939.06
2018-11-28T06:25:19.755Z,98947.13
2018-11-28T06:27:48.557Z,98944.97
2018-11-28T06:30:18.841Z,98951.93
2018-11-28T06:32:51.253Z,98952.48
2018-11-28T06:35:17.042Z,98953.31
2018-11-28T06:37:45.836Z,98954.92
2018-11-28T06:40:16.531Z,98959.22
2018-11-28T06:42:46.663Z,98958.70
2018-11-28T06:45:17.883Z,98958.41
2018-11-28T06:47:46.828Z,98955.66
2018-11-28T06:50:16.580Z,98958.60
2018-11-28T06:52:47.043Z,98962.38
2018-11-28T06:55:16.757Z,98964.25
2018-11-28T06:57:45.338Z,98965.58
2018-11-28T07:00:16.045Z,98970.98
2018-11-28T07:02:44.662Z,98968.03
2018-11-28T07:05:13.740Z,98986.00
2018-11-28T07:07:42.450Z,98988.72
2018-11-28T07:10:17.118Z,98986.08
2018-11-28T07:12:45.874Z,98991.65
2018-11-28T07:15:16.203Z,98998.40
2018-11-28T07:17:45.168Z,98997.84
2018-11-28T07:20:15.730Z,99001.94
2018-11-28T07:22:44.335Z,99003.50
2018-11-28T07:25:17.105Z,99012.17
2018-11-28T07:27:46.667Z,99017.00
2018-11-28T07:30:17.560Z,99019.21
2018-11-28T07:32:46.669Z,99019.42
2018-11-28T07:35:15.631Z,99019.13
2018-11-28T07:37:44.346Z,99022.70
2018-11-28T07:40:16.501Z,99026.70
2018-11-28T07:42:49.302Z,99026.66
2018-11-28T07:45:18.744Z,99029.92
2018-11-28T07:47:47.346Z,99034.78
2018-11-28T07:50:16.395Z,99034.06
2018-11-28T07:52:44.910Z,99035.11
2018-11-28T07:55:14.198Z,99033.48
2018-11-28T07:57:42.876Z,99026.81
2018-11-28T08:00:14.762Z,99028.41
2018-11-28T08:02:44.050Z,99031.94
2018-11-28T08:05:13.120Z,99033.83
2018-11-28T08:07:42.375Z,99038.98
2018-11-28T08:10:16.822Z,99041.93
2018-11-28T08:12:45.827Z,99041.89
2018-11-28T08:15:15.099Z,99047.31
2018-11-28T08:17:44.144Z,99045.16
2018-11-28T08:20:12.730Z,99041.92
2018-11-28T08:22:41.328Z,99039.16
2018-11-28T08:25:12.790Z,99036.28
2018-11-28T08:27:40.184Z,99040.81
2018-11-28T08:30:24.619Z,99042.06
2018-11-28T08:32:53.703Z,99049.84
2018-11-28T08:35:22.511Z,99042.74
2018-11-28T08:37:51.423Z,99047.61
2018-11-28T08:40:21.404Z,99048.05
2018-11-28T08:42:50.778Z,99057.92
2018-11-28T08:45:20.473Z,99054.05
2018-11-28T08:47:50.134Z,99055.20
2018-11-28T08:50:21.248Z,99053.60
2018-11-28T08:52:49.834Z,99051.59
2018-11-28T08:55:18.464Z,99056.09
2018-11-28T08:57:47.180Z,99056.77
2018-11-28T09:00:18.639Z,99054.80
2018-11-28T09:02:48.275Z,99068.08
2018-11-28T09:05:16.842Z,99075.06
2018-11-28T09:07:46.002Z,99067.45
2018-11-28T09:10:15.592Z,99063.97
2018-11-28T09:12:44.720Z,99065.64
2018-11-28T09:15:15.331Z,99069.57
2018-11-28T09:17:43.972Z,99069.30
2018-11-28T09:20:13.612Z,99083.60
2018-11-28T09:22:42.167Z,99076.25
2018-11-28T09:25:12.187Z,99080.67
2018-11-28T09:27:41.546Z,99087.25
2018-11-28T09:30:15.379Z,99092.91
2018-11-28T09:32:44.070Z,99089.34
2018-11-28T09:35:13.382Z,99094.80
2018-11-28T09:37:45.591Z,99084.22
2018-11-28T09:40:17.520Z,99083.80
2018-11-28T09:42:47.811Z,99073.49
2018-11-28T09:45:17.583Z,99074.72
2018-11-28T09:47:46.246Z,99080.55
2018-11-28T09:50:18.877Z,99071.16
2018-11-28T09:52:47.666Z,99078.98
2018-11-28T09:55:17.532Z,99080.98
2018-11-28T09:57:46.166Z,99069.16
2018-11-28T10:00:18.021Z,99068.94
2018-11-28T10:02:46.826Z,99065.75
2018-11-28T10:05:16.870Z,99060.69
2018-11-28T10:07:45.471Z,99066.80
2018-11-28T10:10:14.574Z,99061.38
2018-11-28T10:12:43.395Z,99062.83
2018-11-28T10:15:17.454Z,99062.45
2018-11-28T10:17:46.337Z,99055.60
2018-11-28T10:20:15.822Z,99052.95
2018-11-28T10:22:44.884Z,99051.56
2018-11-28T10:25:14.564Z,99047.66
2018-11-28T10:27:44.150Z,99055.39
2018-11-28T10:30:16.182Z,99047.39
2018-11-28T10:32:44.819Z,99047.79
2018-11-28T10:35:13.502Z,99043.17
2018-11-28T10:37:42.113Z,99042.73
2018-11-28T10:40:15.525Z,99033.87
2018-11-28T10:42:44.514Z,99035.80
2018-11-28T10:45:14.325Z,99036.00
2018-11-28T10:47:43.014Z,99029.92
2018-11-28T10:50:13.983Z,99030.38
2018-11-28T10:52:42.840Z,99033.09
2018-11-28T10:55:13.583Z,99031.77
2018-11-28T10:57:43.174Z,99026.94
2018-11-28T11:00:21.531Z,99022.19
2018-11-28T11:02:55.290Z,99018.09
2018-11-28T11:05:29.205Z,99005.30
2018-11-28T11:08:03.009Z,99009.38
2018-11-28T11:10:37.302Z,99011.68
2018-11-28T11:13:11.808Z,99007.58
2018-11-28T11:15:40.472Z,99004.62
2018-11-28T11:18:10.960Z,99006.74
2018-11-28T11:20:39.044Z,99012.52
2018-11-28T11:23:08.758Z,99013.97
2018-11-28T11:25:37.378Z,99026.58
2018-11-28T11:28:06.446Z,99019.55
2018-11-28T11:30:35.177Z,99009.24
2018-11-28T11:33:04.128Z,99007.02
2018-11-28T11:35:33.362Z,99014.67
2018-11-28T11:38:02.006Z,99011.49
2018-11-28T11:40:30.662Z,99002.52
2018-11-28T11:42:59.244Z,99002.41
2018-11-28T11:45:27.929Z,99007.63
2018-11-28T11:47:56.540Z,99006.16
2018-11-28T11:50:25.171Z,99002.83
2018-11-28T11:52:54.078Z,98999.91
2018-11-28T11:55:23.199Z,99008.70
2018-11-28T11:57:51.770Z,98992.81
2018-11-28T12:00:25.963Z,99002.08
2018-11-28T12:03:06.651Z,99002.50
2018-11-28T12:05:35.509Z,98992.48
2018-11-28T12:08:04.210Z,99005.73
2018-11-28T12:10:32.946Z,98998.80
2018-11-28T12:13:02.313Z,98989.72
2018-11-28T12:15:30.928Z,98986.14
2018-11-28T12:17:59.947Z,98990.72
2018-11-28T12:20:32.407Z,98997.19
2018-11-28T12:23:01.111Z,99003.64
2018-11-28T12:25:29.908Z,99003.41
2018-11-28T12:27:59.138Z,99007.77
2018-11-28T12:30:28.235Z,99006.81
2018-11-28T12:32:56.736Z,99009.53
2018-11-28T12:35:25.689Z,99015.16
2018-11-28T12:37:54.250Z,98996.89
2018-11-28T12:40:22.943Z,98990.20
2018-11-28T12:42:52.691Z,98996.48
2018-11-28T12:45:21.950Z,98986.69
2018-11-28T12:47:50.558Z,98992.66
2018-11-28T12:50:27.297Z,98987.27
2018-11-28T12:52:57.271Z,98997.56
2018-11-28T12:55:26.019Z,98994.69
2018-11-28T12:57:55.767Z,98992.27
2018-11-28T13:00:26.762Z,98999.11
2018-11-28T13:02:55.515Z,98996.89
2018-11-28T13:05:25.570Z,99008.70
2018-11-28T13:07:54.835Z,99014.03
2018-11-28T13:10:26.606Z,99003.81
2018-11-28T13:12:56.276Z,99003.78
2018-11-28T13:15:25.991Z,98995.83
2018-11-28T13:17:54.582Z,99013.67
2018-11-28T13:20:24.047Z,99001.84
2018-11-28T13:22:55.011Z,99002.27
2018-11-28T13:25:24.815Z,99007.00
2018-11-28T13:27:53.513Z,99007.70
2018-11-28T13:30:23.047Z,99001.89
2018-11-28T13:32:52.259Z,98993.70
2018-11-28T13:35:21.882Z,99005.33
2018-11-28T13:37:51.695Z,99003.44
2018-11-28T13:40:20.992Z,99003.55
2018-11-28T13:42:49.600Z,98996.63
2018-11-28T13:45:22.486Z,99005.28
2018-11-28T13:47:52.364Z,99010.89
2018-11-28T13:50:21.109Z,99015.65
2018-11-28T13:52:50.215Z,99014.02
2018-11-28T13:55:44.015Z,99015.47
2018-11-28T13:57:57.321Z,99025.80
2018-11-28T14:00:26.523Z,99013.59
2018-11-28T14:02:55.188Z,99016.22
2018-11-28T14:05:23.797Z,99016.35
2018-11-28T14:07:52.482Z,99019.47
2018-11-28T14:10:21.285Z,99014.61
2018-11-28T14:12:50.648Z,99013.06
2018-11-28T14:15:22.052Z,99011.17
2018-11-28T14:18:07.410Z,99015.65
2018-11-28T14:20:35.948Z,99014.05
2018-11-28T14:23:04.526Z,99010.83
2018-11-28T14:25:33.476Z,99022.70
2018-11-28T14:28:02.162Z,99025.31
2018-11-28T14:30:31.215Z,99016.27
2018-11-28T14:32:59.761Z,99018.16
2018-11-28T14:35:28.318Z,99017.67
2018-11-28T14:37:56.884Z,99030.27
2018-11-28T14:40:25.927Z,99027.16
2018-11-28T14:42:56.630Z,99038.23
2018-11-28T14:45:25.784Z,99035.81
2018-11-28T14:47:54.391Z,99040.03
2018-11-28T14:50:25.180Z,99046.84
2018-11-28T14:52:54.871Z,99036.36
2018-11-28T14:55:26.471Z,99037.77
2018-11-28T14:57:55.051Z,99038.78
2018-11-28T15:00:24.667Z,99038.88
2018-11-28T15:02:57.507Z,99052.95
2018-11-28T15:05:34.978Z,99046.20
2018-11-28T15:08:06.443Z,99051.36
2018-11-28T15:10:48.107Z,99043.75
2018-11-28T15:13:16.671Z,99051.33
2018-11-28T15:15:45.198Z,99048.91
2018-11-28T15:18:13.778Z,99057.80
2018-11-28T15:20:43.115Z,99043.27
2018-11-28T15:23:11.709Z,99054.06
2018-11-28T15:25:40.247Z,99055.66
2018-11-28T15:28:08.895Z,99060.00
2018-11-28T15:30:37.439Z,99064.55
2018-11-28T15:33:06.052Z,99063.77
2018-11-28T15:35:34.559Z,99066.70
2018-11-28T15:38:03.163Z,99054.30
2018-11-28T15:40:31.711Z,99058.07
2018-11-28T15:43:00.337Z,99053.50
2018-11-28T15:45:29.669Z,99048.41
2018-11-28T15:47:58.219Z,99052.92
2018-11-28T15:50:26.815Z,99045.65
2018-11-28T15:52:55.434Z,99054.02
2018-11-28T15:55:24.075Z,99053.73
2018-11-28T15:57:52.640Z,99048.05
2018-11-28T16:00:22.743Z,99050.45
2018-11-28T16:02:51.341Z,99056.92
2018-11-28T16:05:20.017Z,99068.44
2018-11-28T16:07:48.686Z,99064.44
2018-11-28T16:10:22.551Z,99066.03
2018-11-28T16:12:51.569Z,99061.95
2018-11-28T16:15:23.650Z,99063.57
2018-11-28T16:17:52.267Z,99073.27
2018-11-28T16:20:20.956Z,99078.13
2018-11-28T16:22:49.577Z,99082.05
2018-11-28T16:25:18.130Z,99083.20
2018-11-28T16:27:46.818Z,99080.27
2018-11-28T16:30:16.203Z,99084.25
2018-11-28T16:32:47.358Z,99086.45
2018-11-28T16:35:19.051Z,99079.36
2018-11-28T16:37:50.841Z,99083.08
2018-11-28T16:40:24.059Z,99080.90
2018-11-28T16:42:55.006Z,99087.90
2018-11-28T16:45:25.844Z,99085.48
2018-11-28T16:47:56.992Z,99088.92
2018-11-28T16:50:28.428Z,99085.96
2018-11-28T16:52:59.692Z,99089.00
2018-11-28T16:55:30.805Z,99091.38
2018-11-28T16:58:01.862Z,99085.55
2018-11-28T17:00:34.407Z,99079.37
2018-11-28T17:03:05.103Z,99081.19
2018-11-28T17:05:36.254Z,99078.78
2018-11-28T17:08:08.234Z,99079.66
2018-11-28T17:10:36.942Z,99083.74
2018-11-28T17:13:06.046Z,99090.15
2018-11-28T17:15:34.683Z,99106.25
2018-11-28T17:18:03.280Z,99090.30
2018-11-28T17:20:34.329Z,99098.35
2018-11-28T17:23:04.223Z,99099.53
2018-11-28T17:25:33.337Z,99097.75
2018-11-28T17:28:01.934Z,99098.55
2018-11-28T17:30:31.098Z,99104.55
2018-11-28T17:32:59.734Z,99102.78
2018-11-28T17:35:33.343Z,99090.36
2018-11-28T17:38:09.823Z,99103.11
2018-11-28T17:40:43.181Z,99091.94
2018-11-28T17:43:28.951Z,99093.26
2018-11-28T17:45:57.607Z,99098.14
2018-11-28T17:48:26.280Z,99103.05
2018-11-28T17:50:56.018Z,99085.73
2018-11-28T17:53:24.945Z,99092.04
2018-11-28T17:55:56.201Z,99102.65
2018-11-28T17:58:24.835Z,99105.77
2018-11-28T18:00:54.560Z,99101.97
2018-11-28T18:03:24.105Z,99110.09
2018-11-28T18:05:53.879Z,99114.98
2018-11-28T18:08:22.464Z,99117.39
2018-11-28T18:10:51.115Z,99115.74
2018-11-28T18:13:20.012Z,99095.55
2018-11-28T18:15:54.730Z,99097.31
2018-11-28T18:18:25.549Z,99106.91
2018-11-28T18:20:54.213Z,99103.97
2018-11-28T18:23:22.759Z,99102.77
2018-11-28T18:25:53.265Z,99099.44
2018-11-28T18:28:23.380Z,99090.66
2018-11-28T18:30:53.713Z,99087.05
2018-11-28T18:33:25.338Z,99089.05
2018-11-28T18:35:55.373Z,99078.31
2018-11-28T18:38:25.408Z,99078.03
2018-11-28T18:40:55.471Z,99071.50
2018-11-28T18:43:24.762Z,99081.63
2018-11-28T18:45:54.894Z,99074.67
2018-11-28T18:48:24.958Z,99074.73
2018-11-28T18:50:54.994Z,99064.11
2018-11-28T18:53:23.843Z,99068.66
2018-11-28T18:55:53.681Z,99068.38
2018-11-28T18:58:23.464Z,99078.23
2018-11-28T19:00:53.214Z,99077.25
2018-11-28T19:03:22.963Z,99078.79
2018-11-28T19:05:53.330Z,99087.63
2018-11-28T19:08:23.570Z,99084.65
2018-11-28T19:10:53.257Z,99092.22
2018-11-28T19:13:22.928Z,99075.42
2018-11-28T19:15:52.548Z,99079.63
2018-11-28T19:18:22.552Z,99084.38
2018-11-28T19:20:52.683Z,99082.23
2018-11-28T19:23:22.413Z,99094.33
2018-11-28T19:25:52.316Z,99094.45
2018-11-28T19:28:22.125Z,99105.41
2018-11-28T19:30:51.976Z,99098.34
2018-11-28T19:33:21.956Z,99094.05
2018-11-28T19:35:51.787Z,99096.39
2018-11-28T19:38:22.415Z,99108.45
2018-11-28T19:40:57.469Z,99128.46
2018-11-28T19:43:27.088Z,99116.94
2018-11-28T19:45:55.814Z,99126.73
2018-11-28T19:48:26.439Z,99117.25
2018-11-28T19:50:55.939Z,99131.52
2018-11-28T19:53:25.588Z,99147.67
2018-11-28T19:55:55.084Z,99141.05
2018-11-28T19:58:26.682Z,99137.02
2018-11-28T20:00:56.730Z,99133.41
2018-11-28T20:03:25.464Z,99132.13
2018-11-28T20:05:56.500Z,99126.87
2018-11-28T20:08:26.114Z,99110.09
2018-11-28T20:10:56.204Z,99096.45
2018-11-28T20:13:25.508Z,99104.58
2018-11-28T20:15:57.095Z,99101.03
2018-11-28T20:18:26.276Z,99098.60
2018-11-28T20:20:55.752Z,99100.09
2018-11-28T20:23:24.494Z,99093.23
2018-11-28T20:25:54.205Z,99093.23
2018-11-28T20:28:23.919Z,99095.20
2018-11-28T20:30:53.706Z,99090.09
2018-11-28T20:33:23.466Z,99104.78
2018-11-28T20:35:53.291Z,99104.25
2018-11-28T20:38:26.875Z,99102.45
2018-11-28T20:40:55.492Z,99096.64
2018-11-28T20:43:24.107Z,99094.95
2018-11-28T20:45:52.774Z,99101.97
2018-11-28T20:48:21.447Z,99105.77
2018-11-28T20:50:50.728Z,99097.75
2018-11-28T20:53:20.715Z,99093.95
2018-11-28T20:55:49.924Z,99088.86
2018-11-28T20:58:19.278Z,99083.77
2018-11-28T21:00:48.049Z,99085.55
2018-11-28T21:03:16.659Z,99099.82
2018-11-28T21:05:45.719Z,99112.18
2018-11-28T21:08:14.428Z,99116.99
2018-11-28T21:10:43.426Z,99114.38
2018-11-28T21:13:13.598Z,99107.80
2018-11-28T21:15:44.050Z,99088.91
2018-11-28T21:18:12.717Z,99092.17
2018-11-28T21:20:42.799Z,99093.50
2018-11-28T21:23:12.908Z,99098.38
2018-11-28T21:25:41.525Z,99101.05
2018-11-28T21:28:10.231Z,99100.50
2018-11-28T21:30:38.908Z,99113.64
2018-11-28T21:33:09.480Z,99121.48
2018-11-28T21:35:39.578Z,99109.36
2018-11-28T21:38:09.058Z,99098.87
2018-11-28T21:40:38.468Z,99086.71
2018-11-28T21:43:07.811Z,99082.70
2018-11-28T21:45:36.850Z,99074.60
2018-11-28T21:48:05.835Z,99067.12
2018-11-28T21:50:35.197Z,99071.20
2018-11-28T21:53:04.178Z,99071.45
2018-11-28T21:55:33.434Z,99076.20
2018-11-28T21:58:02.508Z,99084.77
2018-11-28T22:00:31.433Z,99073.90
2018-11-28T22:03:00.357Z,99061.30
2018-11-28T22:05:29.276Z,99079.55
2018-11-28T22:07:58.198Z,99078.00
2018-11-28T22:10:27.806Z,99084.40
2018-11-28T22:12:56.900Z,99091.22
2018-11-28T22:15:25.814Z,99087.96
2018-11-28T22:17:57.670Z,99073.47
2018-11-28T22:20:27.138Z,99069.42
2018-11-28T22:22:56.077Z,99065.47
2018-11-28T22:25:25.798Z,99060.62
2018-11-28T22:27:54.751Z,99059.77
2018-11-28T22:30:25.682Z,99057.88
2018-11-28T22:32:54.227Z,99042.83
2018-11-28T22:35:23.649Z,99043.33
2018-11-28T22:37:52.959Z,99026.46
2018-11-28T22:40:28.735Z,99029.91
2018-11-28T22:42:57.574Z,99021.06
2018-11-28T22:45:28.395Z,99028.34
2018-11-28T22:47:56.972Z,99022.18
2018-11-28T22:50:26.298Z,99020.79
2018-11-28T22:52:54.866Z,99025.86
2018-11-28T22:55:23.486Z,99023.98
2018-11-28T22:57:52.185Z,99026.16
2018-11-28T23:00:28.875Z,99023.29
2018-11-28T23:03:13.320Z,99010.61
2018-11-28T23:05:46.402Z,99014.45
2018-11-28T23:08:16.167Z,99016.98
2018-11-28T23:10:44.875Z,99005.75
2018-11-28T23:13:15.710Z,99004.11
2018-11-28T23:15:44.312Z,99014.42
2018-11-28T23:18:13.164Z,99014.67
2018-11-28T23:20:41.917Z,99013.69
2018-11-28T23:23:10.711Z,99017.13
2018-11-28T23:25:39.322Z,99025.14
2018-11-28T23:28:08.483Z,99022.92
2018-11-28T23:30:37.921Z,99020.73
2018-11-28T23:33:09.014Z,99015.42
2018-11-28T23:35:37.840Z,99011.21
2018-11-28T23:38:08.042Z,99003.39
2018-11-28T23:40:36.818Z,99009.49
2018-11-28T23:43:05.804Z,99011.72
2018-11-28T23:45:34.362Z,99001.57
2018-11-28T23:48:03.093Z,98995.34
2018-11-28T23:50:31.682Z,98992.86
2018-11-28T23:53:00.433Z,98999.82
2018-11-28T23:55:30.220Z,99002.23
2018-11-28T23:57:58.776Z,98998.03
